Terminal Aerodrome Forecast
Issued by NWS Honolulu, HI

Home | Current Version | Previous Version | Text Only | Print | Product List | Glossary On
Versions: 1 2 3 4 5 6 7 8 9 10 11 12 13 14 15 16 17 18 19 20 21 22 23 24 25
000
FTPA31 PHFO 241120
TAFHNL
TAF
PHNL 241120Z 2412/2518 VRB05KT P6SM VCTS SCT022 BKN040CB BKN100
      TEMPO 2412/2414 4SM TSRA SCT008 BKN013 OVC025CB
     FM242000 12010KT P6SM VCSH SCT025 BKN050
     FM250500 05007KT P6SM FEW025 BKN050=

USA.gov is the U.S. government's official web portal to all federal, state and local government web resources and services.